sensor_id;sensor_type;location;lat;lon;timestamp;pressure;altitude;pressure_sealevel;temperature;humidity
64316;BME280;50652;51.482;-0.580;2023-05-23T00:01:17;102466.08;;;14.82;42.22
64316;BME280;50652;51.482;-0.580;2023-05-23T00:03:44;102466.59;;;14.70;42.12
64316;BME280;50652;51.482;-0.580;2023-05-23T00:06:11;102468.23;;;14.87;42.01
64316;BME280;50652;51.482;-0.580;2023-05-23T00:08:38;102466.54;;;14.74;42.55
64316;BME280;50652;51.482;-0.580;2023-05-23T00:11:06;102462.36;;;14.79;43.18
64316;BME280;50652;51.482;-0.580;2023-05-23T00:13:33;102464.85;;;14.35;43.09
64316;BME280;50652;51.482;-0.580;2023-05-23T00:16:03;102463.62;;;14.49;43.78
64316;BME280;50652;51.482;-0.580;2023-05-23T00:18:30;102466.39;;;14.55;43.55
64316;BME280;50652;51.482;-0.580;2023-05-23T00:20:57;102462.03;;;14.34;43.52
64316;BME280;50652;51.482;-0.580;2023-05-23T00:23:25;102464.84;;;14.55;43.53
64316;BME280;50652;51.482;-0.580;2023-05-23T00:25:52;102462.37;;;14.62;43.57
64316;BME280;50652;51.482;-0.580;2023-05-23T00:28:19;102465.74;;;14.62;43.49
64316;BME280;50652;51.482;-0.580;2023-05-23T00:30:47;102466.77;;;14.39;43.48
64316;BME280;50652;51.482;-0.580;2023-05-23T00:33:15;102464.66;;;14.37;43.67
64316;BME280;50652;51.482;-0.580;2023-05-23T00:35:43;102459.99;;;14.53;43.17
64316;BME280;50652;51.482;-0.580;2023-05-23T00:38:10;102459.42;;;14.21;43.58
64316;BME280;50652;51.482;-0.580;2023-05-23T00:40:38;102464.51;;;14.41;43.74
64316;BME280;50652;51.482;-0.580;2023-05-23T00:43:05;102459.72;;;14.47;43.52
64316;BME280;50652;51.482;-0.580;2023-05-23T00:45:32;102456.50;;;14.51;43.62
64316;BME280;50652;51.482;-0.580;2023-05-23T00:48:00;102458.63;;;14.09;43.58
64316;BME280;50652;51.482;-0.580;2023-05-23T00:50:28;102460.51;;;14.25;43.77
64316;BME280;50652;51.482;-0.580;2023-05-23T00:52:58;102455.40;;;14.27;44.03
64316;BME280;50652;51.482;-0.580;2023-05-23T00:55:26;102452.20;;;13.94;44.45
64316;BME280;50652;51.482;-0.580;2023-05-23T00:57:54;102448.03;;;13.87;44.59
64316;BME280;50652;51.482;-0.580;2023-05-23T01:00:22;102452.25;;;13.85;44.54
64316;BME280;50652;51.482;-0.580;2023-05-23T01:02:51;102453.58;;;14.04;44.45
64316;BME280;50652;51.482;-0.580;2023-05-23T01:05:19;102453.15;;;14.18;45.05
64316;BME280;50652;51.482;-0.580;2023-05-23T01:07:47;102450.29;;;13.71;45.30
64316;BME280;50652;51.482;-0.580;2023-05-23T01:10:16;102453.62;;;13.77;45.83
64316;BME280;50652;51.482;-0.580;2023-05-23T01:12:54;102457.25;;;13.55;45.74
64316;BME280;50652;51.482;-0.580;2023-05-23T01:15:27;102459.56;;;13.39;46.22
64316;BME280;50652;51.482;-0.580;2023-05-23T01:18:00;102457.41;;;13.60;45.55
64316;BME280;50652;51.482;-0.580;2023-05-23T01:20:31;102464.81;;;13.94;45.36
64316;BME280;50652;51.482;-0.580;2023-05-23T01:25:27;102469.25;;;13.79;46.42
64316;BME280;50652;51.482;-0.580;2023-05-23T01:28:04;102469.69;;;13.69;45.67
64316;BME280;50652;51.482;-0.580;2023-05-23T01:30:34;102467.54;;;13.62;45.58
64316;BME280;50652;51.482;-0.580;2023-05-23T01:33:04;102460.45;;;13.62;45.83
64316;BME280;50652;51.482;-0.580;2023-05-23T01:35:32;102461.08;;;13.85;46.02
64316;BME280;50652;51.482;-0.580;2023-05-23T01:38:00;102458.22;;;13.61;46.09
64316;BME280;50652;51.482;-0.580;2023-05-23T01:40:27;102458.35;;;13.52;46.28
64316;BME280;50652;51.482;-0.580;2023-05-23T01:42:55;102458.50;;;13.50;46.22
64316;BME280;50652;51.482;-0.580;2023-05-23T01:45:24;102458.41;;;13.57;46.06
64316;BME280;50652;51.482;-0.580;2023-05-23T01:47:58;102464.04;;;13.29;46.37
64316;BME280;50652;51.482;-0.580;2023-05-23T01:50:26;102464.72;;;13.13;46.53
64316;BME280;50652;51.482;-0.580;2023-05-23T01:52:54;102465.89;;;13.79;46.27
64316;BME280;50652;51.482;-0.580;2023-05-23T01:55:22;102462.70;;;13.49;47.01
64316;BME280;50652;51.482;-0.580;2023-05-23T01:57:53;102461.43;;;13.74;46.50
64316;BME280;50652;51.482;-0.580;2023-05-23T02:00:21;102463.44;;;13.07;47.36
64316;BME280;50652;51.482;-0.580;2023-05-23T02:02:49;102462.00;;;12.65;47.86
64316;BME280;50652;51.482;-0.580;2023-05-23T02:05:16;102460.74;;;13.19;46.81
64316;BME280;50652;51.482;-0.580;2023-05-23T02:07:48;102465.01;;;13.58;46.14
64316;BME280;50652;51.482;-0.580;2023-05-23T02:10:15;102472.23;;;13.29;46.35
64316;BME280;50652;51.482;-0.580;2023-05-23T02:12:43;102475.61;;;13.43;45.58
64316;BME280;50652;51.482;-0.580;2023-05-23T02:15:10;102481.71;;;13.46;46.19
64316;BME280;50652;51.482;-0.580;2023-05-23T02:17:37;102480.70;;;13.24;46.96
64316;BME280;50652;51.482;-0.580;2023-05-23T02:20:06;102481.19;;;13.59;47.04
64316;BME280;50652;51.482;-0.580;2023-05-23T02:22:35;102480.78;;;13.34;46.85
64316;BME280;50652;51.482;-0.580;2023-05-23T02:25:04;102483.81;;;13.63;46.91
64316;BME280;50652;51.482;-0.580;2023-05-23T02:27:32;102484.40;;;12.88;47.93
64316;BME280;50652;51.482;-0.580;2023-05-23T02:29:59;102487.66;;;13.68;47.70
64316;BME280;50652;51.482;-0.580;2023-05-23T02:32:26;102486.49;;;12.53;49.72
64316;BME280;50652;51.482;-0.580;2023-05-23T02:34:53;102489.35;;;12.68;50.23
64316;BME280;50652;51.482;-0.580;2023-05-23T02:37:20;102491.95;;;13.22;49.91
64316;BME280;50652;51.482;-0.580;2023-05-23T02:39:48;102494.64;;;13.06;50.37
64316;BME280;50652;51.482;-0.580;2023-05-23T02:42:15;102497.36;;;12.83;50.63
64316;BME280;50652;51.482;-0.580;2023-05-23T02:44:41;102500.63;;;12.68;51.54
64316;BME280;50652;51.482;-0.580;2023-05-23T02:47:09;102506.91;;;12.46;52.52
64316;BME280;50652;51.482;-0.580;2023-05-23T02:49:36;102503.76;;;13.38;51.13
64316;BME280;50652;51.482;-0.580;2023-05-23T02:52:03;102501.03;;;13.46;50.67
64316;BME280;50652;51.482;-0.580;2023-05-23T02:54:30;102507.46;;;13.36;50.17
64316;BME280;50652;51.482;-0.580;2023-05-23T02:56:57;102512.92;;;13.07;51.37
64316;BME280;50652;51.482;-0.580;2023-05-23T02:59:24;102510.36;;;12.93;50.95
64316;BME280;50652;51.482;-0.580;2023-05-23T03:01:51;102516.17;;;13.33;51.02
64316;BME280;50652;51.482;-0.580;2023-05-23T03:04:19;102513.10;;;13.19;51.09
64316;BME280;50652;51.482;-0.580;2023-05-23T03:06:46;102512.84;;;13.41;50.74
64316;BME280;50652;51.482;-0.580;2023-05-23T03:09:14;102510.39;;;13.48;50.92
64316;BME280;50652;51.482;-0.580;2023-05-23T03:11:41;102513.85;;;12.76;52.40
64316;BME280;50652;51.482;-0.580;2023-05-23T03:14:08;102512.04;;;13.05;51.88
64316;BME280;50652;51.482;-0.580;2023-05-23T03:16:35;102517.57;;;13.05;52.00
64316;BME280;50652;51.482;-0.580;2023-05-23T03:19:02;102514.31;;;13.27;51.34
64316;BME280;50652;51.482;-0.580;2023-05-23T03:21:30;102513.44;;;13.30;51.36
64316;BME280;50652;51.482;-0.580;2023-05-23T03:23:57;102517.28;;;12.86;52.34
64316;BME280;50652;51.482;-0.580;2023-05-23T03:26:25;102512.28;;;13.43;51.59
64316;BME280;50652;51.482;-0.580;2023-05-23T03:28:51;102509.88;;;13.34;51.20
64316;BME280;50652;51.482;-0.580;2023-05-23T03:31:19;102516.26;;;13.29;51.66
64316;BME280;50652;51.482;-0.580;2023-05-23T03:33:46;102515.93;;;13.02;51.54
64316;BME280;50652;51.482;-0.580;2023-05-23T03:36:13;102515.79;;;12.84;51.91
64316;BME280;50652;51.482;-0.580;2023-05-23T03:38:40;102516.05;;;13.33;51.60
64316;BME280;50652;51.482;-0.580;2023-05-23T03:41:07;102522.36;;;12.77;52.68
64316;BME280;50652;51.482;-0.580;2023-05-23T03:43:34;102521.97;;;12.45;53.30
64316;BME280;50652;51.482;-0.580;2023-05-23T03:46:02;102524.29;;;12.00;55.62
64316;BME280;50652;51.482;-0.580;2023-05-23T03:48:29;102519.90;;;12.58;53.42
64316;BME280;50652;51.482;-0.580;2023-05-23T03:50:57;102523.84;;;11.97;55.25
64316;BME280;50652;51.482;-0.580;2023-05-23T03:53:24;102521.34;;;13.06;52.64
64316;BME280;50652;51.482;-0.580;2023-05-23T03:55:51;102520.43;;;13.00;52.74
64316;BME280;50652;51.482;-0.580;2023-05-23T03:58:19;102513.04;;;13.07;52.14
64316;BME280;50652;51.482;-0.580;2023-05-23T04:00:46;102513.87;;;12.72;53.21
64316;BME280;50652;51.482;-0.580;2023-05-23T04:03:13;102510.35;;;12.75;53.07
64316;BME280;50652;51.482;-0.580;2023-05-23T04:05:40;102507.23;;;13.02;52.41
64316;BME280;50652;51.482;-0.580;2023-05-23T04:08:07;102507.91;;;13.31;52.10
64316;BME280;50652;51.482;-0.580;2023-05-23T04:10:34;102510.44;;;13.15;51.90
64316;BME280;50652;51.482;-0.580;2023-05-23T04:13:00;102516.00;;;13.04;52.19
64316;BME280;50652;51.482;-0.580;2023-05-23T04:15:27;102519.49;;;12.96;52.46
64316;BME280;50652;51.482;-0.580;2023-05-23T04:17:55;102521.16;;;13.09;52.98
64316;BME280;50652;51.482;-0.580;2023-05-23T04:20:22;102522.99;;;13.05;52.38
64316;BME280;50652;51.482;-0.580;2023-05-23T04:22:50;102520.44;;;12.56;53.28
64316;BME280;50652;51.482;-0.580;2023-05-23T04:25:17;102524.99;;;13.16;52.81
64316;BME280;50652;51.482;-0.580;2023-05-23T04:27:44;102526.05;;;12.80;53.68
64316;BME280;50652;51.482;-0.580;2023-05-23T04:30:12;102524.46;;;12.96;52.97
64316;BME280;50652;51.482;-0.580;2023-05-23T04:32:39;102527.42;;;13.01;53.12
64316;BME280;50652;51.482;-0.580;2023-05-23T04:35:07;102530.57;;;12.34;54.25
64316;BME280;50652;51.482;-0.580;2023-05-23T04:37:34;102529.56;;;12.63;53.68
64316;BME280;50652;51.482;-0.580;2023-05-23T04:40:02;102532.98;;;12.82;53.85
64316;BME280;50652;51.482;-0.580;2023-05-23T04:42:29;102529.73;;;12.65;53.69
64316;BME280;50652;51.482;-0.580;2023-05-23T04:44:56;102532.08;;;12.83;53.49
64316;BME280;50652;51.482;-0.580;2023-05-23T04:47:23;102533.19;;;13.10;52.96
64316;BME280;50652;51.482;-0.580;2023-05-23T04:49:50;102534.98;;;13.27;52.32
64316;BME280;50652;51.482;-0.580;2023-05-23T04:52:17;102538.25;;;13.50;52.42
64316;BME280;50652;51.482;-0.580;2023-05-23T04:54:45;102544.47;;;13.28;52.44
64316;BME280;50652;51.482;-0.580;2023-05-23T04:57:12;102545.74;;;13.16;52.80
64316;BME280;50652;51.482;-0.580;2023-05-23T04:59:40;102545.33;;;12.89;53.99
64316;BME280;50652;51.482;-0.580;2023-05-23T05:02:07;102549.75;;;12.72;53.96
64316;BME280;50652;51.482;-0.580;2023-05-23T05:04:35;102554.66;;;12.92;53.63
64316;BME280;50652;51.482;-0.580;2023-05-23T05:07:02;102551.70;;;13.08;53.43
64316;BME280;50652;51.482;-0.580;2023-05-23T05:09:29;102547.69;;;13.48;52.74
64316;BME280;50652;51.482;-0.580;2023-05-23T05:11:57;102555.17;;;13.36;53.09
64316;BME280;50652;51.482;-0.580;2023-05-23T05:14:25;102556.73;;;12.76;54.76
64316;BME280;50652;51.482;-0.580;2023-05-23T05:16:53;102555.36;;;12.96;54.29
64316;BME280;50652;51.482;-0.580;2023-05-23T05:19:20;102557.60;;;13.54;53.13
64316;BME280;50652;51.482;-0.580;2023-05-23T05:21:48;102560.98;;;13.25;53.26
64316;BME280;50652;51.482;-0.580;2023-05-23T05:24:15;102564.52;;;13.28;53.16
64316;BME280;50652;51.482;-0.580;2023-05-23T05:26:42;102567.83;;;13.64;52.85
64316;BME280;50652;51.482;-0.580;2023-05-23T05:29:09;102574.37;;;13.54;53.82
64316;BME280;50652;51.482;-0.580;2023-05-23T05:31:36;102574.49;;;13.33;53.35
64316;BME280;50652;51.482;-0.580;2023-05-23T05:34:03;102577.27;;;13.26;53.97
64316;BME280;50652;51.482;-0.580;2023-05-23T05:36:30;102577.48;;;13.62;53.41
64316;BME280;50652;51.482;-0.580;2023-05-23T05:38:57;102577.13;;;13.58;53.22
64316;BME280;50652;51.482;-0.580;2023-05-23T05:41:24;102578.13;;;13.97;53.03
64316;BME280;50652;51.482;-0.580;2023-05-23T05:43:51;102578.82;;;13.53;53.06
64316;BME280;50652;51.482;-0.580;2023-05-23T05:46:18;102580.03;;;13.82;53.79
64316;BME280;50652;51.482;-0.580;2023-05-23T05:48:45;102585.81;;;13.51;53.56
64316;BME280;50652;51.482;-0.580;2023-05-23T05:51:12;102583.23;;;13.83;53.25
64316;BME280;50652;51.482;-0.580;2023-05-23T05:53:40;102578.52;;;13.70;53.06
64316;BME280;50652;51.482;-0.580;2023-05-23T05:56:07;102577.25;;;13.56;53.19
64316;BME280;50652;51.482;-0.580;2023-05-23T05:58:34;102579.40;;;12.70;55.10
64316;BME280;50652;51.482;-0.580;2023-05-23T06:01:01;102575.99;;;13.35;54.63
64316;BME280;50652;51.482;-0.580;2023-05-23T06:03:28;102579.06;;;13.74;53.53
64316;BME280;50652;51.482;-0.580;2023-05-23T06:05:55;102581.51;;;13.63;53.85
64316;BME280;50652;51.482;-0.580;2023-05-23T06:08:22;102583.35;;;12.88;55.10
64316;BME280;50652;51.482;-0.580;2023-05-23T06:10:49;102586.82;;;13.83;53.62
64316;BME280;50652;51.482;-0.580;2023-05-23T06:13:16;102586.82;;;14.31;53.54
64316;BME280;50652;51.482;-0.580;2023-05-23T06:15:43;102590.26;;;14.60;53.44
64316;BME280;50652;51.482;-0.580;2023-05-23T06:18:11;102597.14;;;14.46;52.89
64316;BME280;50652;51.482;-0.580;2023-05-23T06:20:38;102597.20;;;14.45;52.31
64316;BME280;50652;51.482;-0.580;2023-05-23T06:23:04;102598.98;;;12.93;53.61
64316;BME280;50652;51.482;-0.580;2023-05-23T06:25:31;102597.77;;;14.05;53.60
64316;BME280;50652;51.482;-0.580;2023-05-23T06:27:58;102595.12;;;13.66;53.18
64316;BME280;50652;51.482;-0.580;2023-05-23T06:30:26;102593.20;;;14.13;53.13
64316;BME280;50652;51.482;-0.580;2023-05-23T06:32:53;102589.37;;;14.58;52.66
64316;BME280;50652;51.482;-0.580;2023-05-23T06:35:20;102582.47;;;14.78;51.55
64316;BME280;50652;51.482;-0.580;2023-05-23T06:37:46;102577.16;;;14.82;51.76
64316;BME280;50652;51.482;-0.580;2023-05-23T06:40:13;102576.22;;;15.11;50.42
64316;BME280;50652;51.482;-0.580;2023-05-23T06:42:41;102580.24;;;15.03;50.67
64316;BME280;50652;51.482;-0.580;2023-05-23T06:45:09;102581.43;;;15.38;50.01
64316;BME280;50652;51.482;-0.580;2023-05-23T06:47:36;102579.62;;;15.30;49.57
64316;BME280;50652;51.482;-0.580;2023-05-23T06:50:03;102581.29;;;13.79;51.12
64316;BME280;50652;51.482;-0.580;2023-05-23T06:52:30;102580.85;;;13.84;50.48
64316;BME280;50652;51.482;-0.580;2023-05-23T06:54:57;102580.71;;;14.87;49.85
64316;BME280;50652;51.482;-0.580;2023-05-23T06:57:24;102581.67;;;15.11;49.01
64316;BME280;50652;51.482;-0.580;2023-05-23T06:59:50;102587.23;;;15.60;48.88
64316;BME280;50652;51.482;-0.580;2023-05-23T07:02:18;102590.18;;;15.12;49.23
64316;BME280;50652;51.482;-0.580;2023-05-23T07:04:44;102590.63;;;15.08;48.48
64316;BME280;50652;51.482;-0.580;2023-05-23T07:07:12;102595.58;;;14.74;49.20
64316;BME280;50652;51.482;-0.580;2023-05-23T07:09:39;102596.27;;;14.93;48.70
64316;BME280;50652;51.482;-0.580;2023-05-23T07:12:07;102591.94;;;15.12;49.02
64316;BME280;50652;51.482;-0.580;2023-05-23T07:14:34;102590.43;;;15.27;49.25
64316;BME280;50652;51.482;-0.580;2023-05-23T07:17:01;102587.24;;;14.73;49.55
64316;BME280;50652;51.482;-0.580;2023-05-23T07:19:30;102584.42;;;15.03;49.18
64316;BME280;50652;51.482;-0.580;2023-05-23T07:21:56;102584.07;;;15.14;49.49
64316;BME280;50652;51.482;-0.580;2023-05-23T07:24:24;102585.26;;;14.72;49.17
64316;BME280;50652;51.482;-0.580;2023-05-23T07:26:51;102581.96;;;15.15;48.40
64316;BME280;50652;51.482;-0.580;2023-05-23T07:29:18;102581.96;;;15.15;48.31
64316;BME280;50652;51.482;-0.580;2023-05-23T07:31:45;102590.21;;;14.68;48.17
64316;BME280;50652;51.482;-0.580;2023-05-23T07:34:12;102592.10;;;14.76;49.02
64316;BME280;50652;51.482;-0.580;2023-05-23T07:36:39;102590.74;;;15.65;46.69
64316;BME280;50652;51.482;-0.580;2023-05-23T07:39:06;102594.62;;;15.04;47.09
64316;BME280;50652;51.482;-0.580;2023-05-23T07:41:33;102586.74;;;15.99;46.76
64316;BME280;50652;51.482;-0.580;2023-05-23T07:44:01;102587.92;;;15.68;46.84
64316;BME280;50652;51.482;-0.580;2023-05-23T07:46:29;102586.83;;;15.58;46.30
64316;BME280;50652;51.482;-0.580;2023-05-23T07:48:56;102590.53;;;15.80;45.85
64316;BME280;50652;51.482;-0.580;2023-05-23T07:51:23;102597.68;;;15.84;46.76
64316;BME280;50652;51.482;-0.580;2023-05-23T07:53:50;102598.03;;;15.91;45.70
64316;BME280;50652;51.482;-0.580;2023-05-23T07:56:17;102605.94;;;15.56;46.29
64316;BME280;50652;51.482;-0.580;2023-05-23T07:58:44;102603.23;;;16.27;45.40
64316;BME280;50652;51.482;-0.580;2023-05-23T08:01:11;102602.94;;;15.78;46.61
64316;BME280;50652;51.482;-0.580;2023-05-23T08:03:38;102605.68;;;15.90;45.14
64316;BME280;50652;51.482;-0.580;2023-05-23T08:06:05;102605.98;;;15.85;45.22
64316;BME280;50652;51.482;-0.580;2023-05-23T08:08:32;102607.97;;;16.01;43.16
64316;BME280;50652;51.482;-0.580;2023-05-23T08:10:59;102611.14;;;15.55;43.67
64316;BME280;50652;51.482;-0.580;2023-05-23T08:13:26;102602.64;;;16.10;44.13
64316;BME280;50652;51.482;-0.580;2023-05-23T08:15:53;102603.36;;;15.91;44.20
64316;BME280;50652;51.482;-0.580;2023-05-23T08:18:20;102607.81;;;16.61;44.60
64316;BME280;50652;51.482;-0.580;2023-05-23T08:20:48;102604.17;;;16.20;43.94
64316;BME280;50652;51.482;-0.580;2023-05-23T08:23:15;102608.35;;;16.14;44.05
64316;BME280;50652;51.482;-0.580;2023-05-23T08:25:42;102609.45;;;16.42;43.77
64316;BME280;50652;51.482;-0.580;2023-05-23T08:28:09;102610.61;;;16.54;43.78
64316;BME280;50652;51.482;-0.580;2023-05-23T08:30:36;102607.95;;;16.75;42.58
64316;BME280;50652;51.482;-0.580;2023-05-23T08:33:04;102608.16;;;15.73;43.69
64316;BME280;50652;51.482;-0.580;2023-05-23T08:35:31;102606.07;;;16.40;44.37
64316;BME280;50652;51.482;-0.580;2023-05-23T08:37:58;102602.82;;;16.41;42.26
64316;BME280;50652;51.482;-0.580;2023-05-23T08:40:26;102604.60;;;16.59;43.82
64316;BME280;50652;51.482;-0.580;2023-05-23T08:42:53;102604.50;;;16.42;43.30
64316;BME280;50652;51.482;-0.580;2023-05-23T08:45:20;102611.37;;;15.09;44.76
64316;BME280;50652;51.482;-0.580;2023-05-23T08:47:48;102602.88;;;16.27;43.27
64316;BME280;50652;51.482;-0.580;2023-05-23T08:50:17;102604.05;;;16.45;43.69
64316;BME280;50652;51.482;-0.580;2023-05-23T08:52:49;102600.80;;;17.12;43.38
64316;BME280;50652;51.482;-0.580;2023-05-23T08:55:21;102596.81;;;17.06;43.32
64316;BME280;50652;51.482;-0.580;2023-05-23T08:57:49;102600.85;;;16.42;43.20
64316;BME280;50652;51.482;-0.580;2023-05-23T09:00:18;102602.19;;;16.91;43.24
64316;BME280;50652;51.482;-0.580;2023-05-23T09:02:45;102599.29;;;16.79;41.03
64316;BME280;50652;51.482;-0.580;2023-05-23T09:05:13;102600.31;;;16.86;41.11
64316;BME280;50652;51.482;-0.580;2023-05-23T09:07:41;102597.70;;;17.06;40.38
64316;BME280;50652;51.482;-0.580;2023-05-23T09:10:10;102600.42;;;16.92;40.22
64316;BME280;50652;51.482;-0.580;2023-05-23T09:12:37;102597.55;;;17.32;40.25
64316;BME280;50652;51.482;-0.580;2023-05-23T09:15:05;102602.94;;;17.29;41.93
64316;BME280;50652;51.482;-0.580;2023-05-23T09:17:33;102605.57;;;16.46;42.15
64316;BME280;50652;51.482;-0.580;2023-05-23T09:20:00;102606.45;;;16.36;41.93
64316;BME280;50652;51.482;-0.580;2023-05-23T09:22:27;102602.86;;;16.16;41.37
64316;BME280;50652;51.482;-0.580;2023-05-23T09:24:55;102609.43;;;16.77;41.16
64316;BME280;50652;51.482;-0.580;2023-05-23T09:27:23;102611.67;;;16.46;41.70
64316;BME280;50652;51.482;-0.580;2023-05-23T09:29:50;102603.89;;;16.45;40.44
64316;BME280;50652;51.482;-0.580;2023-05-23T09:32:18;102598.94;;;16.16;40.75
64316;BME280;50652;51.482;-0.580;2023-05-23T09:34:55;102600.23;;;17.04;41.94
64316;BME280;50652;51.482;-0.580;2023-05-23T09:37:28;102600.12;;;16.47;40.12
64316;BME280;50652;51.482;-0.580;2023-05-23T09:39:55;102604.96;;;17.03;40.60
64316;BME280;50652;51.482;-0.580;2023-05-23T09:42:23;102607.32;;;17.03;40.44
64316;BME280;50652;51.482;-0.580;2023-05-23T09:44:50;102607.69;;;16.83;40.49
64316;BME280;50652;51.482;-0.580;2023-05-23T09:47:17;102608.46;;;17.23;39.44
64316;BME280;50652;51.482;-0.580;2023-05-23T09:49:45;102620.27;;;17.40;39.23
64316;BME280;50652;51.482;-0.580;2023-05-23T09:52:12;102628.17;;;17.15;40.66
64316;BME280;50652;51.482;-0.580;2023-05-23T09:54:39;102628.91;;;17.16;40.45
64316;BME280;50652;51.482;-0.580;2023-05-23T09:57:09;102624.46;;;17.58;40.80
64316;BME280;50652;51.482;-0.580;2023-05-23T09:59:40;102624.38;;;17.06;39.99
64316;BME280;50652;51.482;-0.580;2023-05-23T10:02:11;102625.93;;;16.76;40.57
64316;BME280;50652;51.482;-0.580;2023-05-23T10:04:38;102624.37;;;17.25;40.54
64316;BME280;50652;51.482;-0.580;2023-05-23T10:07:12;102618.10;;;17.39;40.63
64316;BME280;50652;51.482;-0.580;2023-05-23T10:09:41;102616.80;;;18.12;38.96
64316;BME280;50652;51.482;-0.580;2023-05-23T10:12:38;102613.62;;;17.84;38.12
64316;BME280;50652;51.482;-0.580;2023-05-23T10:15:10;102613.19;;;18.29;39.67
64316;BME280;50652;51.482;-0.580;2023-05-23T10:17:51;102607.31;;;18.03;38.70
64316;BME280;50652;51.482;-0.580;2023-05-23T10:20:24;102607.18;;;18.19;38.51
64316;BME280;50652;51.482;-0.580;2023-05-23T10:22:52;102615.12;;;18.49;38.47
64316;BME280;50652;51.482;-0.580;2023-05-23T10:25:20;102608.84;;;19.00;37.69
64316;BME280;50652;51.482;-0.580;2023-05-23T10:27:48;102611.21;;;18.57;37.69
64316;BME280;50652;51.482;-0.580;2023-05-23T10:30:16;102613.08;;;18.38;38.72
64316;BME280;50652;51.482;-0.580;2023-05-23T10:32:44;102612.58;;;18.28;37.14
64316;BME280;50652;51.482;-0.580;2023-05-23T10:35:19;102605.20;;;18.58;36.39
64316;BME280;50652;51.482;-0.580;2023-05-23T10:37:54;102608.19;;;18.73;35.52
64316;BME280;50652;51.482;-0.580;2023-05-23T10:40:33;102612.36;;;18.08;35.91
64316;BME280;50652;51.482;-0.580;2023-05-23T10:43:06;102611.56;;;17.93;35.98
64316;BME280;50652;51.482;-0.580;2023-05-23T10:45:39;102608.57;;;18.35;35.66
64316;BME280;50652;51.482;-0.580;2023-05-23T10:48:19;102605.70;;;18.39;36.67
64316;BME280;50652;51.482;-0.580;2023-05-23T10:51:01;102604.45;;;18.93;36.21
64316;BME280;50652;51.482;-0.580;2023-05-23T10:53:29;102610.29;;;18.99;35.96
64316;BME280;50652;51.482;-0.580;2023-05-23T10:55:57;102612.29;;;18.79;37.27
64316;BME280;50652;51.482;-0.580;2023-05-23T10:58:24;102616.60;;;19.75;35.52
64316;BME280;50652;51.482;-0.580;2023-05-23T11:00:52;102614.25;;;20.03;35.92
64316;BME280;50652;51.482;-0.580;2023-05-23T11:03:30;102617.29;;;19.39;37.61
64316;BME280;50652;51.482;-0.580;2023-05-23T11:05:58;102615.26;;;18.96;36.42
64316;BME280;50652;51.482;-0.580;2023-05-23T11:08:26;102610.99;;;19.69;34.86
64316;BME280;50652;51.482;-0.580;2023-05-23T11:10:55;102613.24;;;19.11;35.66
64316;BME280;50652;51.482;-0.580;2023-05-23T11:13:22;102610.62;;;19.42;35.19
64316;BME280;50652;51.482;-0.580;2023-05-23T11:15:50;102616.72;;;18.95;35.25
64316;BME280;50652;51.482;-0.580;2023-05-23T11:18:22;102616.93;;;19.15;35.54
64316;BME280;50652;51.482;-0.580;2023-05-23T11:20:52;102613.49;;;18.59;35.59
64316;BME280;50652;51.482;-0.580;2023-05-23T11:23:20;102616.89;;;19.17;36.46
64316;BME280;50652;51.482;-0.580;2023-05-23T11:25:49;102612.44;;;19.57;35.40
64316;BME280;50652;51.482;-0.580;2023-05-23T11:28:17;102617.89;;;19.42;34.95
64316;BME280;50652;51.482;-0.580;2023-05-23T11:30:47;102621.45;;;19.23;34.94
64316;BME280;50652;51.482;-0.580;2023-05-23T11:33:14;102622.58;;;19.34;36.61
64316;BME280;50652;51.482;-0.580;2023-05-23T11:35:43;102612.76;;;19.10;35.97
64316;BME280;50652;51.482;-0.580;2023-05-23T11:38:10;102618.14;;;19.43;34.93
64316;BME280;50652;51.482;-0.580;2023-05-23T11:40:39;102620.41;;;19.39;36.35
64316;BME280;50652;51.482;-0.580;2023-05-23T11:43:08;102617.23;;;20.15;36.36
64316;BME280;50652;51.482;-0.580;2023-05-23T11:45:37;102613.53;;;19.39;35.49
64316;BME280;50652;51.482;-0.580;2023-05-23T11:48:05;102608.52;;;19.64;36.99
64316;BME280;50652;51.482;-0.580;2023-05-23T11:50:33;102613.75;;;20.30;36.35
64316;BME280;50652;51.482;-0.580;2023-05-23T11:53:02;102606.43;;;20.67;35.26
64316;BME280;50652;51.482;-0.580;2023-05-23T11:55:28;102609.17;;;20.61;35.22
64316;BME280;50652;51.482;-0.580;2023-05-23T11:57:56;102608.47;;;20.50;34.51
64316;BME280;50652;51.482;-0.580;2023-05-23T12:00:23;102607.48;;;20.62;34.93
64316;BME280;50652;51.482;-0.580;2023-05-23T12:02:50;102603.00;;;19.90;34.60
64316;BME280;50652;51.482;-0.580;2023-05-23T12:05:17;102611.14;;;18.51;35.12
64316;BME280;50652;51.482;-0.580;2023-05-23T12:07:46;102610.83;;;19.60;36.42
64316;BME280;50652;51.482;-0.580;2023-05-23T12:10:13;102612.26;;;19.81;35.99
64316;BME280;50652;51.482;-0.580;2023-05-23T12:12:41;102608.07;;;19.86;35.88
64316;BME280;50652;51.482;-0.580;2023-05-23T12:15:09;102605.21;;;19.77;35.66
64316;BME280;50652;51.482;-0.580;2023-05-23T12:17:37;102603.64;;;19.66;34.99
64316;BME280;50652;51.482;-0.580;2023-05-23T12:20:05;102604.19;;;19.84;35.24
64316;BME280;50652;51.482;-0.580;2023-05-23T12:22:33;102599.82;;;21.17;35.61
64316;BME280;50652;51.482;-0.580;2023-05-23T12:25:01;102603.35;;;20.64;36.01
64316;BME280;50652;51.482;-0.580;2023-05-23T12:27:29;102606.80;;;20.81;34.83
64316;BME280;50652;51.482;-0.580;2023-05-23T12:30:04;102609.12;;;20.68;35.16
64316;BME280;50652;51.482;-0.580;2023-05-23T12:32:31;102600.48;;;20.12;35.48
64316;BME280;50652;51.482;-0.580;2023-05-23T12:34:58;102596.38;;;20.56;34.98
64316;BME280;50652;51.482;-0.580;2023-05-23T12:37:25;102591.49;;;20.89;35.70
64316;BME280;50652;51.482;-0.580;2023-05-23T12:39:52;102582.67;;;21.60;35.50
64316;BME280;50652;51.482;-0.580;2023-05-23T12:42:19;102586.91;;;21.32;34.55
64316;BME280;50652;51.482;-0.580;2023-05-23T12:44:50;102582.04;;;21.02;35.06
64316;BME280;50652;51.482;-0.580;2023-05-23T12:47:18;102581.54;;;21.82;34.64